sensor_id;sensor_type;location;lat;lon;timestamp;P1;durP1;ratioP1;P2;durP2;ratioP2
69323;SDS011;56470;47.350;8.718;2022-11-02T00:00:43;6.57;;;2.78;;
69323;SDS011;56470;47.350;8.718;2022-11-02T00:03:09;6.45;;;3.25;;
69323;SDS011;56470;47.350;8.718;2022-11-02T00:05:34;6.63;;;2.70;;
69323;SDS011;56470;47.350;8.718;2022-11-02T00:08:00;5.00;;;2.97;;
69323;SDS011;56470;47.350;8.718;2022-11-02T00:10:25;5.40;;;2.67;;
69323;SDS011;56470;47.350;8.718;2022-11-02T00:12:51;5.43;;;2.40;;
69323;SDS011;56470;47.350;8.718;2022-11-02T00:15:17;5.72;;;3.17;;
69323;SDS011;56470;47.350;8.718;2022-11-02T00:17:46;5.05;;;2.60;;
69323;SDS011;56470;47.350;8.718;2022-11-02T00:20:14;6.27;;;2.70;;
69323;SDS011;56470;47.350;8.718;2022-11-02T00:22:42;8.70;;;2.90;;
69323;SDS011;56470;47.350;8.718;2022-11-02T00:25:09;6.30;;;2.78;;
69323;SDS011;56470;47.350;8.718;2022-11-02T00:27:37;6.68;;;3.10;;
69323;SDS011;56470;47.350;8.718;2022-11-02T00:30:04;7.32;;;3.08;;
69323;SDS011;56470;47.350;8.718;2022-11-02T00:32:30;5.63;;;2.73;;
69323;SDS011;56470;47.350;8.718;2022-11-02T00:34:55;7.45;;;3.05;;
69323;SDS011;56470;47.350;8.718;2022-11-02T00:37:21;5.43;;;2.97;;
69323;SDS011;56470;47.350;8.718;2022-11-02T00:39:46;7.23;;;2.80;;
69323;SDS011;56470;47.350;8.718;2022-11-02T00:42:12;7.25;;;3.22;;
69323;SDS011;56470;47.350;8.718;2022-11-02T00:44:37;6.40;;;3.43;;
69323;SDS011;56470;47.350;8.718;2022-11-02T00:47:02;5.00;;;2.80;;
69323;SDS011;56470;47.350;8.718;2022-11-02T00:49:28;6.47;;;3.13;;
69323;SDS011;56470;47.350;8.718;2022-11-02T00:51:53;6.00;;;3.13;;
69323;SDS011;56470;47.350;8.718;2022-11-02T00:54:19;5.97;;;2.67;;
69323;SDS011;56470;47.350;8.718;2022-11-02T00:56:44;5.50;;;2.73;;
69323;SDS011;56470;47.350;8.718;2022-11-02T00:59:09;5.73;;;2.60;;
69323;SDS011;56470;47.350;8.718;2022-11-02T01:01:35;5.77;;;2.73;;
69323;SDS011;56470;47.350;8.718;2022-11-02T01:04:00;7.87;;;3.60;;
69323;SDS011;56470;47.350;8.718;2022-11-02T01:06:25;6.83;;;2.93;;
69323;SDS011;56470;47.350;8.718;2022-11-02T01:08:51;5.77;;;3.13;;
69323;SDS011;56470;47.350;8.718;2022-11-02T01:11:18;6.97;;;3.20;;
69323;SDS011;56470;47.350;8.718;2022-11-02T01:13:46;6.05;;;2.75;;
69323;SDS011;56470;47.350;8.718;2022-11-02T01:16:12;6.87;;;2.90;;
69323;SDS011;56470;47.350;8.718;2022-11-02T01:18:38;6.55;;;2.85;;
69323;SDS011;56470;47.350;8.718;2022-11-02T01:21:04;6.53;;;2.80;;
69323;SDS011;56470;47.350;8.718;2022-11-02T01:23:30;5.00;;;2.37;;
69323;SDS011;56470;47.350;8.718;2022-11-02T01:26:06;5.80;;;2.63;;
69323;SDS011;56470;47.350;8.718;2022-11-02T01:28:33;5.15;;;2.55;;
69323;SDS011;56470;47.350;8.718;2022-11-02T01:30:59;6.47;;;2.43;;
69323;SDS011;56470;47.350;8.718;2022-11-02T01:33:25;4.60;;;2.40;;
69323;SDS011;56470;47.350;8.718;2022-11-02T01:35:51;5.03;;;2.85;;
69323;SDS011;56470;47.350;8.718;2022-11-02T01:38:17;5.72;;;3.25;;
69323;SDS011;56470;47.350;8.718;2022-11-02T01:40:43;6.07;;;2.67;;
69323;SDS011;56470;47.350;8.718;2022-11-02T01:43:21;5.97;;;2.50;;
69323;SDS011;56470;47.350;8.718;2022-11-02T01:45:55;6.50;;;3.08;;
69323;SDS011;56470;47.350;8.718;2022-11-02T01:48:29;5.32;;;2.78;;
69323;SDS011;56470;47.350;8.718;2022-11-02T01:53:50;5.60;;;2.60;;
69323;SDS011;56470;47.350;8.718;2022-11-02T01:56:19;6.75;;;3.40;;
69323;SDS011;56470;47.350;8.718;2022-11-02T01:58:48;6.07;;;3.28;;
69323;SDS011;56470;47.350;8.718;2022-11-02T02:01:18;8.68;;;3.38;;
69323;SDS011;56470;47.350;8.718;2022-11-02T02:03:44;5.33;;;3.00;;
69323;SDS011;56470;47.350;8.718;2022-11-02T02:06:12;5.63;;;3.00;;
69323;SDS011;56470;47.350;8.718;2022-11-02T02:08:39;10.85;;;3.30;;
69323;SDS011;56470;47.350;8.718;2022-11-02T02:33:47;5.80;;;2.38;;
69323;SDS011;56470;47.350;8.718;2022-11-02T02:36:39;6.22;;;2.88;;
69323;SDS011;56470;47.350;8.718;2022-11-02T02:41:53;6.65;;;2.75;;
69323;SDS011;56470;47.350;8.718;2022-11-02T02:44:25;6.23;;;3.27;;
69323;SDS011;56470;47.350;8.718;2022-11-02T02:46:59;5.63;;;2.72;;
69323;SDS011;56470;47.350;8.718;2022-11-02T02:49:34;7.53;;;3.58;;
69323;SDS011;56470;47.350;8.718;2022-11-02T02:52:04;6.38;;;3.30;;
69323;SDS011;56470;47.350;8.718;2022-11-02T02:54:33;8.77;;;3.88;;
69323;SDS011;56470;47.350;8.718;2022-11-02T02:57:08;7.27;;;3.53;;
69323;SDS011;56470;47.350;8.718;2022-11-02T02:59:40;7.05;;;3.28;;
69323;SDS011;56470;47.350;8.718;2022-11-02T03:02:09;6.50;;;2.90;;
69323;SDS011;56470;47.350;8.718;2022-11-02T03:04:40;7.32;;;3.53;;
69323;SDS011;56470;47.350;8.718;2022-11-02T03:07:05;6.80;;;3.57;;
69323;SDS011;56470;47.350;8.718;2022-11-02T03:09:43;8.50;;;3.33;;
69323;SDS011;56470;47.350;8.718;2022-11-02T03:23:29;7.18;;;3.05;;
69323;SDS011;56470;47.350;8.718;2022-11-02T03:26:22;5.90;;;3.00;;
69323;SDS011;56470;47.350;8.718;2022-11-02T03:31:33;6.15;;;3.33;;
69323;SDS011;56470;47.350;8.718;2022-11-02T03:36:31;7.73;;;3.30;;
69323;SDS011;56470;47.350;8.718;2022-11-02T03:39:03;5.93;;;2.83;;
69323;SDS011;56470;47.350;8.718;2022-11-02T03:41:31;5.30;;;3.03;;
69323;SDS011;56470;47.350;8.718;2022-11-02T03:44:04;5.50;;;3.17;;
69323;SDS011;56470;47.350;8.718;2022-11-02T03:46:32;6.70;;;3.60;;
69323;SDS011;56470;47.350;8.718;2022-11-02T03:49:01;6.88;;;3.03;;
69323;SDS011;56470;47.350;8.718;2022-11-02T03:51:30;8.88;;;3.65;;
69323;SDS011;56470;47.350;8.718;2022-11-02T03:54:01;7.40;;;3.75;;
69323;SDS011;56470;47.350;8.718;2022-11-02T03:56:34;8.60;;;4.10;;
69323;SDS011;56470;47.350;8.718;2022-11-02T03:59:06;5.45;;;3.20;;
69323;SDS011;56470;47.350;8.718;2022-11-02T04:01:35;8.63;;;3.45;;
69323;SDS011;56470;47.350;8.718;2022-11-02T04:04:04;7.20;;;2.80;;
69323;SDS011;56470;47.350;8.718;2022-11-02T04:06:29;5.93;;;2.90;;
69323;SDS011;56470;47.350;8.718;2022-11-02T04:08:56;6.97;;;3.45;;
69323;SDS011;56470;47.350;8.718;2022-11-02T04:11:21;6.60;;;2.80;;
69323;SDS011;56470;47.350;8.718;2022-11-02T04:14:05;5.50;;;3.00;;
69323;SDS011;56470;47.350;8.718;2022-11-02T04:16:49;7.67;;;4.03;;
69323;SDS011;56470;47.350;8.718;2022-11-02T04:19:34;6.80;;;2.75;;
69323;SDS011;56470;47.350;8.718;2022-11-02T04:21:59;6.70;;;3.40;;
69323;SDS011;56470;47.350;8.718;2022-11-02T04:24:43;7.68;;;3.33;;
69323;SDS011;56470;47.350;8.718;2022-11-02T04:27:27;7.47;;;3.35;;
69323;SDS011;56470;47.350;8.718;2022-11-02T04:29:53;5.60;;;3.30;;
69323;SDS011;56470;47.350;8.718;2022-11-02T04:32:18;7.90;;;3.70;;
69323;SDS011;56470;47.350;8.718;2022-11-02T04:35:03;8.02;;;3.58;;
69323;SDS011;56470;47.350;8.718;2022-11-02T04:37:29;6.63;;;3.33;;
69323;SDS011;56470;47.350;8.718;2022-11-02T04:40:13;8.25;;;3.65;;
69323;SDS011;56470;47.350;8.718;2022-11-02T04:42:39;6.03;;;3.33;;
69323;SDS011;56470;47.350;8.718;2022-11-02T04:45:05;7.63;;;2.97;;
69323;SDS011;56470;47.350;8.718;2022-11-02T04:47:31;8.55;;;3.15;;
69323;SDS011;56470;47.350;8.718;2022-11-02T04:49:56;7.67;;;3.87;;
69323;SDS011;56470;47.350;8.718;2022-11-02T04:52:22;7.35;;;3.35;;
69323;SDS011;56470;47.350;8.718;2022-11-02T04:54:47;5.43;;;2.83;;
69323;SDS011;56470;47.350;8.718;2022-11-02T04:57:12;8.10;;;3.30;;
69323;SDS011;56470;47.350;8.718;2022-11-02T04:59:38;8.53;;;3.20;;
69323;SDS011;56470;47.350;8.718;2022-11-02T05:02:03;5.80;;;2.87;;
69323;SDS011;56470;47.350;8.718;2022-11-02T05:04:28;7.90;;;3.33;;
69323;SDS011;56470;47.350;8.718;2022-11-02T05:06:54;7.00;;;3.20;;
69323;SDS011;56470;47.350;8.718;2022-11-02T05:09:19;6.13;;;3.50;;
69323;SDS011;56470;47.350;8.718;2022-11-02T05:11:44;8.80;;;3.85;;
69323;SDS011;56470;47.350;8.718;2022-11-02T05:14:10;9.90;;;3.87;;
69323;SDS011;56470;47.350;8.718;2022-11-02T05:16:35;7.90;;;3.63;;
69323;SDS011;56470;47.350;8.718;2022-11-02T05:19:00;6.63;;;3.00;;
69323;SDS011;56470;47.350;8.718;2022-11-02T05:21:26;5.47;;;2.70;;
69323;SDS011;56470;47.350;8.718;2022-11-02T05:23:51;6.67;;;3.30;;
69323;SDS011;56470;47.350;8.718;2022-11-02T05:26:16;5.93;;;2.97;;
69323;SDS011;56470;47.350;8.718;2022-11-02T05:28:42;6.00;;;3.47;;
69323;SDS011;56470;47.350;8.718;2022-11-02T05:31:07;7.90;;;3.90;;
69323;SDS011;56470;47.350;8.718;2022-11-02T05:33:33;7.03;;;3.07;;
69323;SDS011;56470;47.350;8.718;2022-11-02T05:35:59;6.57;;;3.15;;
69323;SDS011;56470;47.350;8.718;2022-11-02T05:38:25;7.78;;;3.65;;
69323;SDS011;56470;47.350;8.718;2022-11-02T05:40:51;6.17;;;3.10;;
69323;SDS011;56470;47.350;8.718;2022-11-02T05:43:21;6.60;;;3.33;;
69323;SDS011;56470;47.350;8.718;2022-11-02T05:45:50;8.38;;;3.80;;
69323;SDS011;56470;47.350;8.718;2022-11-02T05:48:19;7.53;;;2.83;;
69323;SDS011;56470;47.350;8.718;2022-11-02T05:50:45;9.13;;;2.83;;
69323;SDS011;56470;47.350;8.718;2022-11-02T05:53:11;7.18;;;3.80;;
69323;SDS011;56470;47.350;8.718;2022-11-02T05:55:36;6.87;;;3.13;;
69323;SDS011;56470;47.350;8.718;2022-11-02T05:58:02;5.70;;;2.57;;
69323;SDS011;56470;47.350;8.718;2022-11-02T06:00:28;5.97;;;3.28;;
69323;SDS011;56470;47.350;8.718;2022-11-02T06:02:56;6.60;;;2.60;;
69323;SDS011;56470;47.350;8.718;2022-11-02T06:05:23;6.80;;;2.95;;
69323;SDS011;56470;47.350;8.718;2022-11-02T06:07:49;6.63;;;3.20;;
69323;SDS011;56470;47.350;8.718;2022-11-02T06:10:15;7.27;;;3.00;;
69323;SDS011;56470;47.350;8.718;2022-11-02T06:12:40;7.80;;;2.90;;
69323;SDS011;56470;47.350;8.718;2022-11-02T06:15:06;6.03;;;2.90;;
69323;SDS011;56470;47.350;8.718;2022-11-02T06:17:35;6.47;;;3.17;;
69323;SDS011;56470;47.350;8.718;2022-11-02T06:20:05;6.57;;;2.83;;
69323;SDS011;56470;47.350;8.718;2022-11-02T06:22:40;4.63;;;2.47;;
69323;SDS011;56470;47.350;8.718;2022-11-02T06:25:06;9.20;;;3.58;;
69323;SDS011;56470;47.350;8.718;2022-11-02T06:27:33;5.97;;;2.97;;
69323;SDS011;56470;47.350;8.718;2022-11-02T06:29:58;8.38;;;4.20;;
69323;SDS011;56470;47.350;8.718;2022-11-02T06:32:24;5.77;;;3.37;;
69323;SDS011;56470;47.350;8.718;2022-11-02T06:34:49;6.87;;;3.40;;
69323;SDS011;56470;47.350;8.718;2022-11-02T06:37:14;7.25;;;3.17;;
69323;SDS011;56470;47.350;8.718;2022-11-02T06:39:40;7.43;;;3.00;;
69323;SDS011;56470;47.350;8.718;2022-11-02T06:42:05;7.83;;;2.90;;
69323;SDS011;56470;47.350;8.718;2022-11-02T06:44:30;8.23;;;3.17;;
69323;SDS011;56470;47.350;8.718;2022-11-02T06:46:58;8.00;;;3.30;;
69323;SDS011;56470;47.350;8.718;2022-11-02T06:49:24;7.57;;;2.70;;
69323;SDS011;56470;47.350;8.718;2022-11-02T06:51:49;9.27;;;3.60;;
69323;SDS011;56470;47.350;8.718;2022-11-02T06:54:15;9.00;;;3.15;;
69323;SDS011;56470;47.350;8.718;2022-11-02T06:56:40;9.60;;;3.30;;
69323;SDS011;56470;47.350;8.718;2022-11-02T06:59:06;7.23;;;3.83;;
69323;SDS011;56470;47.350;8.718;2022-11-02T07:01:34;8.10;;;4.03;;
69323;SDS011;56470;47.350;8.718;2022-11-02T07:04:00;7.78;;;3.42;;
69323;SDS011;56470;47.350;8.718;2022-11-02T07:06:26;5.70;;;3.10;;
69323;SDS011;56470;47.350;8.718;2022-11-02T07:08:51;5.50;;;3.10;;
69323;SDS011;56470;47.350;8.718;2022-11-02T07:11:17;6.93;;;3.25;;
69323;SDS011;56470;47.350;8.718;2022-11-02T07:13:42;10.10;;;3.73;;
69323;SDS011;56470;47.350;8.718;2022-11-02T07:16:07;7.90;;;3.77;;
69323;SDS011;56470;47.350;8.718;2022-11-02T07:18:33;7.73;;;3.47;;
69323;SDS011;56470;47.350;8.718;2022-11-02T07:20:58;8.00;;;3.85;;
69323;SDS011;56470;47.350;8.718;2022-11-02T07:23:24;8.20;;;3.77;;
69323;SDS011;56470;47.350;8.718;2022-11-02T07:25:49;8.57;;;4.00;;
69323;SDS011;56470;47.350;8.718;2022-11-02T07:28:15;8.80;;;3.83;;
69323;SDS011;56470;47.350;8.718;2022-11-02T07:30:40;6.83;;;3.47;;
69323;SDS011;56470;47.350;8.718;2022-11-02T07:33:06;9.60;;;4.07;;
69323;SDS011;56470;47.350;8.718;2022-11-02T07:35:31;8.13;;;3.60;;
69323;SDS011;56470;47.350;8.718;2022-11-02T07:37:59;9.02;;;3.35;;
69323;SDS011;56470;47.350;8.718;2022-11-02T07:40:26;7.22;;;3.88;;
69323;SDS011;56470;47.350;8.718;2022-11-02T07:42:52;9.05;;;3.90;;
69323;SDS011;56470;47.350;8.718;2022-11-02T07:45:18;8.17;;;3.90;;
69323;SDS011;56470;47.350;8.718;2022-11-02T07:47:45;10.48;;;4.20;;
69323;SDS011;56470;47.350;8.718;2022-11-02T07:50:11;8.27;;;3.45;;
69323;SDS011;56470;47.350;8.718;2022-11-02T07:52:44;6.50;;;3.60;;
69323;SDS011;56470;47.350;8.718;2022-11-02T07:55:14;7.67;;;2.90;;
69323;SDS011;56470;47.350;8.718;2022-11-02T07:57:42;5.63;;;2.92;;
69323;SDS011;56470;47.350;8.718;2022-11-02T08:00:08;5.43;;;2.83;;
69323;SDS011;56470;47.350;8.718;2022-11-02T08:02:35;7.00;;;3.07;;
69323;SDS011;56470;47.350;8.718;2022-11-02T08:05:00;7.83;;;3.33;;
69323;SDS011;56470;47.350;8.718;2022-11-02T08:07:26;7.20;;;2.95;;
69323;SDS011;56470;47.350;8.718;2022-11-02T08:09:51;8.27;;;3.00;;
69323;SDS011;56470;47.350;8.718;2022-11-02T08:12:16;7.77;;;2.63;;
69323;SDS011;56470;47.350;8.718;2022-11-02T08:14:42;7.10;;;2.30;;
69323;SDS011;56470;47.350;8.718;2022-11-02T08:17:07;4.90;;;1.90;;
69323;SDS011;56470;47.350;8.718;2022-11-02T08:19:33;4.75;;;2.42;;
69323;SDS011;56470;47.350;8.718;2022-11-02T08:21:58;6.47;;;2.23;;
69323;SDS011;56470;47.350;8.718;2022-11-02T08:24:24;4.97;;;1.80;;
69323;SDS011;56470;47.350;8.718;2022-11-02T08:26:49;5.77;;;2.00;;
69323;SDS011;56470;47.350;8.718;2022-11-02T08:29:14;5.00;;;2.07;;
69323;SDS011;56470;47.350;8.718;2022-11-02T08:31:40;6.53;;;2.20;;
69323;SDS011;56470;47.350;8.718;2022-11-02T08:34:05;4.77;;;2.67;;
69323;SDS011;56470;47.350;8.718;2022-11-02T08:36:30;4.53;;;2.00;;
69323;SDS011;56470;47.350;8.718;2022-11-02T08:38:56;5.43;;;2.77;;
69323;SDS011;56470;47.350;8.718;2022-11-02T08:41:21;5.77;;;2.17;;
69323;SDS011;56470;47.350;8.718;2022-11-02T08:43:46;7.23;;;2.20;;
69323;SDS011;56470;47.350;8.718;2022-11-02T08:46:12;4.93;;;1.80;;
69323;SDS011;56470;47.350;8.718;2022-11-02T08:48:37;5.93;;;1.97;;
69323;SDS011;56470;47.350;8.718;2022-11-02T08:51:02;6.00;;;1.58;;
69323;SDS011;56470;47.350;8.718;2022-11-02T08:53:29;4.27;;;1.80;;
69323;SDS011;56470;47.350;8.718;2022-11-02T08:55:58;4.20;;;1.73;;
69323;SDS011;56470;47.350;8.718;2022-11-02T08:58:24;4.80;;;1.88;;
69323;SDS011;56470;47.350;8.718;2022-11-02T09:00:52;4.37;;;1.90;;
69323;SDS011;56470;47.350;8.718;2022-11-02T09:03:19;6.25;;;2.65;;
69323;SDS011;56470;47.350;8.718;2022-11-02T09:05:47;4.93;;;2.10;;
69323;SDS011;56470;47.350;8.718;2022-11-02T09:08:19;4.88;;;1.63;;
69323;SDS011;56470;47.350;8.718;2022-11-02T09:10:46;6.72;;;2.22;;
69323;SDS011;56470;47.350;8.718;2022-11-02T09:13:14;6.22;;;1.90;;
69323;SDS011;56470;47.350;8.718;2022-11-02T09:15:50;6.10;;;2.13;;
69323;SDS011;56470;47.350;8.718;2022-11-02T09:18:18;5.47;;;1.60;;
69323;SDS011;56470;47.350;8.718;2022-11-02T09:20:44;5.38;;;2.00;;
69323;SDS011;56470;47.350;8.718;2022-11-02T09:23:17;4.72;;;1.88;;
69323;SDS011;56470;47.350;8.718;2022-11-02T09:25:44;3.92;;;1.70;;
69323;SDS011;56470;47.350;8.718;2022-11-02T09:28:10;7.47;;;2.08;;
69323;SDS011;56470;47.350;8.718;2022-11-02T09:30:39;6.10;;;1.57;;
69323;SDS011;56470;47.350;8.718;2022-11-02T09:33:05;5.45;;;2.08;;
69323;SDS011;56470;47.350;8.718;2022-11-02T09:35:38;6.53;;;1.80;;
69323;SDS011;56470;47.350;8.718;2022-11-02T09:38:05;4.68;;;1.58;;
69323;SDS011;56470;47.350;8.718;2022-11-02T09:40:35;6.05;;;1.92;;
69323;SDS011;56470;47.350;8.718;2022-11-02T09:43:05;9.33;;;2.33;;
69323;SDS011;56470;47.350;8.718;2022-11-02T09:45:57;7.03;;;1.90;;
69323;SDS011;56470;47.350;8.718;2022-11-02T09:48:51;4.28;;;1.70;;
69323;SDS011;56470;47.350;8.718;2022-11-02T09:51:24;4.80;;;1.67;;
69323;SDS011;56470;47.350;8.718;2022-11-02T09:54:01;5.35;;;2.13;;
69323;SDS011;56470;47.350;8.718;2022-11-02T09:56:40;6.43;;;1.83;;
69323;SDS011;56470;47.350;8.718;2022-11-02T09:59:13;5.80;;;2.00;;
69323;SDS011;56470;47.350;8.718;2022-11-02T10:01:50;6.40;;;1.95;;
69323;SDS011;56470;47.350;8.718;2022-11-02T10:12:46;5.30;;;1.80;;
69323;SDS011;56470;47.350;8.718;2022-11-02T10:17:49;5.70;;;2.28;;
69323;SDS011;56470;47.350;8.718;2022-11-02T10:20:26;4.85;;;1.50;;
69323;SDS011;56470;47.350;8.718;2022-11-02T10:23:00;5.53;;;2.20;;
69323;SDS011;56470;47.350;8.718;2022-11-02T10:25:33;4.68;;;1.73;;
69323;SDS011;56470;47.350;8.718;2022-11-02T10:28:02;6.03;;;2.30;;
69323;SDS011;56470;47.350;8.718;2022-11-02T10:30:34;5.50;;;1.85;;
69323;SDS011;56470;47.350;8.718;2022-11-02T10:33:01;6.25;;;2.20;;
69323;SDS011;56470;47.350;8.718;2022-11-02T10:38:59;5.32;;;1.80;;
69323;SDS011;56470;47.350;8.718;2022-11-02T10:47:02;5.50;;;2.13;;
69323;SDS011;56470;47.350;8.718;2022-11-02T10:52:24;4.53;;;2.05;;
69323;SDS011;56470;47.350;8.718;2022-11-02T10:54:58;4.82;;;1.25;;
69323;SDS011;56470;47.350;8.718;2022-11-02T10:57:23;4.67;;;1.50;;
69323;SDS011;56470;47.350;8.718;2022-11-02T11:03:09;5.60;;;1.38;;
69323;SDS011;56470;47.350;8.718;2022-11-02T11:08:27;6.47;;;1.30;;
69323;SDS011;56470;47.350;8.718;2022-11-02T11:14:14;5.47;;;1.80;;
69323;SDS011;56470;47.350;8.718;2022-11-02T11:16:47;4.00;;;1.40;;
69323;SDS011;56470;47.350;8.718;2022-11-02T11:19:21;4.28;;;1.48;;
69323;SDS011;56470;47.350;8.718;2022-11-02T11:27:51;3.58;;;1.35;;
69323;SDS011;56470;47.350;8.718;2022-11-02T11:32:57;6.22;;;2.03;;
69323;SDS011;56470;47.350;8.718;2022-11-02T11:35:26;3.97;;;1.60;;
69323;SDS011;56470;47.350;8.718;2022-11-02T11:37:56;3.80;;;1.80;;
69323;SDS011;56470;47.350;8.718;2022-11-02T11:40:24;5.10;;;2.08;;
69323;SDS011;56470;47.350;8.718;2022-11-02T11:42:53;3.97;;;1.95;;
69323;SDS011;56470;47.350;8.718;2022-11-02T11:45:21;5.30;;;1.75;;
69323;SDS011;56470;47.350;8.718;2022-11-02T11:50:25;5.07;;;1.70;;
69323;SDS011;56470;47.350;8.718;2022-11-02T11:55:46;6.05;;;1.63;;
69323;SDS011;56470;47.350;8.718;2022-11-02T11:58:20;4.28;;;1.50;;
69323;SDS011;56470;47.350;8.718;2022-11-02T12:01:06;3.55;;;1.48;;
69323;SDS011;56470;47.350;8.718;2022-11-02T12:03:58;4.50;;;1.35;;
69323;SDS011;56470;47.350;8.718;2022-11-02T12:08:56;3.70;;;1.50;;
69323;SDS011;56470;47.350;8.718;2022-11-02T12:22:25;3.80;;;1.80;;
69323;SDS011;56470;47.350;8.718;2022-11-02T12:30:58;8.07;;;2.60;;
69323;SDS011;56470;47.350;8.718;2022-11-02T12:42:25;6.82;;;2.00;;
69323;SDS011;56470;47.350;8.718;2022-11-02T12:45:38;5.13;;;1.52;;
69323;SDS011;56470;47.350;8.718;2022-11-02T12:47:56;3.47;;;1.80;;
69323;SDS011;56470;47.350;8.718;2022-11-02T12:50:42;6.82;;;2.20;;
69323;SDS011;56470;47.350;8.718;2022-11-02T12:56:19;4.15;;;2.10;;
69323;SDS011;56470;47.350;8.718;2022-11-02T12:58:49;5.38;;;1.88;;
69323;SDS011;56470;47.350;8.718;2022-11-02T13:01:34;4.90;;;2.13;;
69323;SDS011;56470;47.350;8.718;2022-11-02T13:04:16;5.13;;;2.08;;
69323;SDS011;56470;47.350;8.718;2022-11-02T13:06:43;5.40;;;2.20;;
69323;SDS011;56470;47.350;8.718;2022-11-02T13:09:13;6.32;;;2.05;;
69323;SDS011;56470;47.350;8.718;2022-11-02T13:12:12;6.28;;;2.47;;
69323;SDS011;56470;47.350;8.718;2022-11-02T13:14:42;9.33;;;2.23;;
69323;SDS011;56470;47.350;8.718;2022-11-02T13:17:12;5.10;;;1.77;;
69323;SDS011;56470;47.350;8.718;2022-11-02T13:19:45;4.63;;;1.88;;
69323;SDS011;56470;47.350;8.718;2022-11-02T13:22:14;4.13;;;1.45;;
69323;SDS011;56470;47.350;8.718;2022-11-02T13:24:43;5.07;;;1.70;;
69323;SDS011;56470;47.350;8.718;2022-11-02T13:27:45;6.47;;;1.90;;
69323;SDS011;56470;47.350;8.718;2022-11-02T13:30:14;5.75;;;1.92;;
69323;SDS011;56470;47.350;8.718;2022-11-02T13:32:42;6.53;;;2.20;;
69323;SDS011;56470;47.350;8.718;2022-11-02T13:35:32;4.78;;;1.90;;
69323;SDS011;56470;47.350;8.718;2022-11-02T13:38:05;4.70;;;1.75;;
69323;SDS011;56470;47.350;8.718;2022-11-02T13:40:36;4.10;;;1.53;;
69323;SDS011;56470;47.350;8.718;2022-11-02T13:51:36;5.22;;;1.75;;
69323;SDS011;56470;47.350;8.718;2022-11-02T13:54:10;3.83;;;1.60;;
69323;SDS011;56470;47.350;8.718;2022-11-02T13:56:41;6.97;;;2.00;;
69323;SDS011;56470;47.350;8.718;2022-11-02T13:59:08;3.72;;;1.88;;
69323;SDS011;56470;47.350;8.718;2022-11-02T14:01:42;4.55;;;1.63;;
69323;SDS011;56470;47.350;8.718;2022-11-02T14:04:09;4.10;;;2.10;;
69323;SDS011;56470;47.350;8.718;2022-11-02T14:07:40;5.47;;;1.97;;
69323;SDS011;56470;47.350;8.718;2022-11-02T14:09:49;4.55;;;1.83;;
69323;SDS011;56470;47.350;8.718;2022-11-02T14:20:33;5.80;;;2.20;;
69323;SDS011;56470;47.350;8.718;2022-11-02T14:23:43;5.97;;;2.15;;
69323;SDS011;56470;47.350;8.718;2022-11-02T14:25:56;8.38;;;1.98;;
69323;SDS011;56470;47.350;8.718;2022-11-02T14:36:28;5.15;;;1.33;;
69323;SDS011;56470;47.350;8.718;2022-11-02T14:44:17;3.78;;;1.85;;
69323;SDS011;56470;47.350;8.718;2022-11-02T14:46:57;3.97;;;1.50;;
69323;SDS011;56470;47.350;8.718;2022-11-02T14:49:31;5.63;;;1.67;;
69323;SDS011;56470;47.350;8.718;2022-11-02T14:52:12;5.05;;;1.77;;
69323;SDS011;56470;47.350;8.718;2022-11-02T14:54:49;3.70;;;1.40;;
69323;SDS011;56470;47.350;8.718;2022-11-02T15:00:16;5.03;;;1.67;;
69323;SDS011;56470;47.350;8.718;2022-11-02T15:02:43;6.85;;;1.77;;
69323;SDS011;56470;47.350;8.718;2022-11-02T15:08:03;4.77;;;1.70;;
69323;SDS011;56470;47.350;8.718;2022-11-02T15:10:34;5.28;;;1.90;;
69323;SDS011;56470;47.350;8.718;2022-11-02T15:16:15;3.85;;;1.73;;
69323;SDS011;56470;47.350;8.718;2022-11-02T15:18:41;6.88;;;1.80;;
69323;SDS011;56470;47.350;8.718;2022-11-02T15:26:39;3.70;;;1.47;;
69323;SDS011;56470;47.350;8.718;2022-11-02T15:31:58;3.97;;;1.95;;
69323;SDS011;56470;47.350;8.718;2022-11-02T15:34:33;6.70;;;1.95;;
69323;SDS011;56470;47.350;8.718;2022-11-02T15:37:06;5.97;;;2.10;;
69323;SDS011;56470;47.350;8.718;2022-11-02T15:39:34;4.57;;;2.10;;
69323;SDS011;56470;47.350;8.718;2022-11-02T15:42:05;5.30;;;1.80;;
69323;SDS011;56470;47.350;8.718;2022-11-02T16:13:40;10.38;;;2.17;;
69323;SDS011;56470;47.350;8.718;2022-11-02T16:26:27;8.57;;;3.45;;
69323;SDS011;56470;47.350;8.718;2022-11-02T16:28:55;10.32;;;3.25;;
69323;SDS011;56470;47.350;8.718;2022-11-02T16:31:25;8.82;;;3.13;;
69323;SDS011;56470;47.350;8.718;2022-11-02T16:34:02;7.57;;;2.63;;
69323;SDS011;56470;47.350;8.718;2022-11-02T16:40:22;9.85;;;3.15;;
69323;SDS011;56470;47.350;8.718;2022-11-02T16:42:50;8.90;;;3.40;;
69323;SDS011;56470;47.350;8.718;2022-11-02T16:45:38;8.48;;;3.15;;
69323;SDS011;56470;47.350;8.718;2022-11-02T16:51:37;6.43;;;2.72;;
69323;SDS011;56470;47.350;8.718;2022-11-02T16:54:26;8.15;;;3.38;;
69323;SDS011;56470;47.350;8.718;2022-11-02T16:57:40;7.57;;;3.60;;
69323;SDS011;56470;47.350;8.718;2022-11-02T17:00:17;6.55;;;2.95;;
69323;SDS011;56470;47.350;8.718;2022-11-02T17:02:44;5.40;;;2.67;;
69323;SDS011;56470;47.350;8.718;2022-11-02T17:05:17;8.32;;;3.00;;
69323;SDS011;56470;47.350;8.718;2022-11-02T17:08:03;6.00;;;3.22;;
69323;SDS011;56470;47.350;8.718;2022-11-02T17:10:33;6.78;;;3.25;;
69323;SDS011;56470;47.350;8.718;2022-11-02T17:13:01;7.00;;;3.47;;
69323;SDS011;56470;47.350;8.718;2022-11-02T17:15:31;12.83;;;4.40;;
69323;SDS011;56470;47.350;8.718;2022-11-02T17:20:33;6.30;;;3.88;;
69323;SDS011;56470;47.350;8.718;2022-11-02T17:23:00;7.40;;;3.40;;
69323;SDS011;56470;47.350;8.718;2022-11-02T17:25:28;8.60;;;3.67;;
69323;SDS011;56470;47.350;8.718;2022-11-02T17:27:58;6.83;;;3.70;;
69323;SDS011;56470;47.350;8.718;2022-11-02T17:35:56;8.38;;;3.63;;
69323;SDS011;56470;47.350;8.718;2022-11-02T17:38:32;7.90;;;2.85;;
69323;SDS011;56470;47.350;8.718;2022-11-02T17:40:58;6.47;;;3.03;;
69323;SDS011;56470;47.350;8.718;2022-11-02T17:43:24;8.90;;;3.90;;
69323;SDS011;56470;47.350;8.718;2022-11-02T17:45:53;6.50;;;3.23;;
69323;SDS011;56470;47.350;8.718;2022-11-02T17:48:22;6.00;;;3.10;;
69323;SDS011;56470;47.350;8.718;2022-11-02T17:50:51;7.93;;;2.53;;
69323;SDS011;56470;47.350;8.718;2022-11-02T17:53:17;5.20;;;2.38;;
69323;SDS011;56470;47.350;8.718;2022-11-02T17:55:43;7.03;;;2.83;;
69323;SDS011;56470;47.350;8.718;2022-11-02T17:58:11;6.50;;;3.00;;
69323;SDS011;56470;47.350;8.718;2022-11-02T18:00:38;7.53;;;2.40;;
69323;SDS011;56470;47.350;8.718;2022-11-02T18:03:03;6.60;;;3.40;;
69323;SDS011;56470;47.350;8.718;2022-11-02T18:05:35;8.90;;;3.28;;
69323;SDS011;56470;47.350;8.718;2022-11-02T18:08:02;6.10;;;2.40;;
69323;SDS011;56470;47.350;8.718;2022-11-02T18:10:32;5.47;;;2.10;;
69323;SDS011;56470;47.350;8.718;2022-11-02T18:13:00;8.07;;;3.40;;
69323;SDS011;56470;47.350;8.718;2022-11-02T18:15:26;6.93;;;3.87;;
69323;SDS011;56470;47.350;8.718;2022-11-02T18:17:53;8.98;;;3.47;;
69323;SDS011;56470;47.350;8.718;2022-11-02T18:20:22;7.45;;;3.47;;
69323;SDS011;56470;47.350;8.718;2022-11-02T18:22:48;6.85;;;3.42;;
69323;SDS011;56470;47.350;8.718;2022-11-02T18:25:15;7.57;;;3.03;;
69323;SDS011;56470;47.350;8.718;2022-11-02T18:27:41;7.97;;;3.35;;
69323;SDS011;56470;47.350;8.718;2022-11-02T18:30:08;8.02;;;4.10;;
69323;SDS011;56470;47.350;8.718;2022-11-02T18:32:38;7.25;;;3.00;;
69323;SDS011;56470;47.350;8.718;2022-11-02T18:35:05;7.00;;;3.38;;
69323;SDS011;56470;47.350;8.718;2022-11-02T18:37:34;8.33;;;3.97;;
69323;SDS011;56470;47.350;8.718;2022-11-02T18:40:01;8.27;;;3.97;;
69323;SDS011;56470;47.350;8.718;2022-11-02T18:42:26;7.47;;;3.77;;
69323;SDS011;56470;47.350;8.718;2022-11-02T18:44:51;9.15;;;4.30;;
69323;SDS011;56470;47.350;8.718;2022-11-02T18:47:17;7.43;;;3.63;;